sensor_id;sensor_type;location;lat;lon;timestamp;pressure;altitude;pressure_sealevel;temperature;humidity
53270;BME280;39159;45.634;9.420;2023-03-13T00:01:20;99018.66;;;8.25;97.92
53270;BME280;39159;45.634;9.420;2023-03-13T00:03:46;99006.44;;;8.22;98.19
53270;BME280;39159;45.634;9.420;2023-03-13T00:06:13;99007.03;;;8.19;98.07
53270;BME280;39159;45.634;9.420;2023-03-13T00:08:39;99007.38;;;8.13;98.65
53270;BME280;39159;45.634;9.420;2023-03-13T00:11:06;99003.34;;;8.10;99.05
53270;BME280;39159;45.634;9.420;2023-03-13T00:13:31;99001.50;;;8.05;99.04
53270;BME280;39159;45.634;9.420;2023-03-13T00:16:04;99010.50;;;8.01;99.25
53270;BME280;39159;45.634;9.420;2023-03-13T00:18:31;99010.28;;;7.97;99.21
53270;BME280;39159;45.634;9.420;2023-03-13T00:21:00;99005.19;;;7.91;99.91
53270;BME280;39159;45.634;9.420;2023-03-13T00:23:26;99005.47;;;7.89;100.00
53270;BME280;39159;45.634;9.420;2023-03-13T00:25:59;98992.53;;;7.81;100.00
53270;BME280;39159;45.634;9.420;2023-03-13T00:28:29;98979.50;;;7.78;100.00
53270;BME280;39159;45.634;9.420;2023-03-13T00:31:04;98971.13;;;7.74;100.00
53270;BME280;39159;45.634;9.420;2023-03-13T00:33:40;98978.69;;;7.77;100.00
53270;BME280;39159;45.634;9.420;2023-03-13T00:36:09;98987.38;;;7.79;100.00
53270;BME280;39159;45.634;9.420;2023-03-13T00:38:35;98971.88;;;7.80;100.00
53270;BME280;39159;45.634;9.420;2023-03-13T00:41:11;98966.75;;;7.78;100.00
53270;BME280;39159;45.634;9.420;2023-03-13T00:43:38;98965.13;;;7.77;100.00
53270;BME280;39159;45.634;9.420;2023-03-13T00:46:05;98970.56;;;7.77;100.00
53270;BME280;39159;45.634;9.420;2023-03-13T00:48:31;98976.50;;;7.79;100.00
53270;BME280;39159;45.634;9.420;2023-03-13T00:50:57;98987.91;;;7.81;100.00
53270;BME280;39159;45.634;9.420;2023-03-13T00:53:23;99005.00;;;7.82;100.00
53270;BME280;39159;45.634;9.420;2023-03-13T00:55:58;99015.84;;;7.87;100.00
53270;BME280;39159;45.634;9.420;2023-03-13T00:58:25;99017.16;;;7.89;100.00
53270;BME280;39159;45.634;9.420;2023-03-13T01:00:52;99031.22;;;7.97;100.00
53270;BME280;39159;45.634;9.420;2023-03-13T01:03:17;99036.06;;;8.00;99.46
53270;BME280;39159;45.634;9.420;2023-03-13T01:05:43;99031.13;;;8.02;99.78
53270;BME280;39159;45.634;9.420;2023-03-13T01:08:09;99022.44;;;8.05;99.44
53270;BME280;39159;45.634;9.420;2023-03-13T01:10:34;99005.59;;;8.03;99.01
53270;BME280;39159;45.634;9.420;2023-03-13T01:13:00;99009.19;;;7.98;100.00
53270;BME280;39159;45.634;9.420;2023-03-13T01:15:25;99013.91;;;7.87;99.92
53270;BME280;39159;45.634;9.420;2023-03-13T01:17:51;99022.44;;;7.76;100.00
53270;BME280;39159;45.634;9.420;2023-03-13T01:20:17;99032.22;;;7.77;100.00
53270;BME280;39159;45.634;9.420;2023-03-13T01:22:42;99033.63;;;7.74;100.00
53270;BME280;39159;45.634;9.420;2023-03-13T01:25:08;99024.19;;;7.66;100.00
53270;BME280;39159;45.634;9.420;2023-03-13T01:27:33;99019.06;;;7.60;100.00
53270;BME280;39159;45.634;9.420;2023-03-13T01:29:59;99009.03;;;7.60;100.00
53270;BME280;39159;45.634;9.420;2023-03-13T01:32:24;99010.91;;;7.65;100.00
53270;BME280;39159;45.634;9.420;2023-03-13T01:34:50;99016.03;;;7.66;100.00
53270;BME280;39159;45.634;9.420;2023-03-13T01:37:15;99015.81;;;7.63;100.00
53270;BME280;39159;45.634;9.420;2023-03-13T01:39:41;99021.28;;;7.58;100.00
53270;BME280;39159;45.634;9.420;2023-03-13T01:42:06;99011.56;;;7.52;100.00
53270;BME280;39159;45.634;9.420;2023-03-13T01:44:51;99019.94;;;7.55;100.00
53270;BME280;39159;45.634;9.420;2023-03-13T01:47:17;99024.84;;;7.53;100.00
53270;BME280;39159;45.634;9.420;2023-03-13T01:49:44;99030.84;;;7.50;100.00
53270;BME280;39159;45.634;9.420;2023-03-13T01:52:24;99031.44;;;7.47;100.00
53270;BME280;39159;45.634;9.420;2023-03-13T01:54:56;99035.28;;;7.41;100.00
53270;BME280;39159;45.634;9.420;2023-03-13T01:57:39;99028.47;;;7.43;100.00
53270;BME280;39159;45.634;9.420;2023-03-13T02:00:09;99011.38;;;7.43;100.00
53270;BME280;39159;45.634;9.420;2023-03-13T02:02:37;99016.22;;;7.46;100.00
53270;BME280;39159;45.634;9.420;2023-03-13T02:05:05;99025.19;;;7.46;100.00
53270;BME280;39159;45.634;9.420;2023-03-13T02:07:40;99032.00;;;7.44;100.00
53270;BME280;39159;45.634;9.420;2023-03-13T02:10:08;99034.44;;;7.45;100.00
53270;BME280;39159;45.634;9.420;2023-03-13T02:12:38;99037.38;;;7.49;100.00
53270;BME280;39159;45.634;9.420;2023-03-13T02:17:33;99032.25;;;7.42;100.00
53270;BME280;39159;45.634;9.420;2023-03-13T02:19:59;99024.13;;;7.42;100.00
53270;BME280;39159;45.634;9.420;2023-03-13T02:22:41;99027.16;;;7.36;100.00
53270;BME280;39159;45.634;9.420;2023-03-13T02:25:19;99024.50;;;7.31;100.00
53270;BME280;39159;45.634;9.420;2023-03-13T02:27:47;99032.69;;;7.25;100.00
53270;BME280;39159;45.634;9.420;2023-03-13T02:30:14;99032.16;;;7.23;100.00
53270;BME280;39159;45.634;9.420;2023-03-13T02:32:41;99025.63;;;7.24;100.00
53270;BME280;39159;45.634;9.420;2023-03-13T02:35:10;99032.13;;;7.29;100.00
53270;BME280;39159;45.634;9.420;2023-03-13T02:37:36;99030.19;;;7.34;100.00
53270;BME280;39159;45.634;9.420;2023-03-13T02:40:07;99033.13;;;7.38;100.00
53270;BME280;39159;45.634;9.420;2023-03-13T02:42:40;99021.13;;;7.44;100.00
53270;BME280;39159;45.634;9.420;2023-03-13T02:45:06;99027.88;;;7.52;100.00
53270;BME280;39159;45.634;9.420;2023-03-13T02:47:32;99022.31;;;7.62;100.00
53270;BME280;39159;45.634;9.420;2023-03-13T02:49:58;99021.94;;;7.74;100.00
53270;BME280;39159;45.634;9.420;2023-03-13T02:52:27;99023.50;;;7.80;100.00
53270;BME280;39159;45.634;9.420;2023-03-13T02:55:05;99016.91;;;7.86;100.00
53270;BME280;39159;45.634;9.420;2023-03-13T02:57:33;99019.81;;;7.95;100.00
53270;BME280;39159;45.634;9.420;2023-03-13T03:00:00;99018.94;;;7.99;100.00
53270;BME280;39159;45.634;9.420;2023-03-13T03:02:25;99012.13;;;8.02;100.00
53270;BME280;39159;45.634;9.420;2023-03-13T03:04:51;99008.06;;;7.99;100.00
53270;BME280;39159;45.634;9.420;2023-03-13T03:07:17;99005.94;;;7.96;100.00
53270;BME280;39159;45.634;9.420;2023-03-13T03:09:42;99008.94;;;7.95;100.00
53270;BME280;39159;45.634;9.420;2023-03-13T03:12:08;99012.47;;;7.95;100.00
53270;BME280;39159;45.634;9.420;2023-03-13T03:14:33;99016.81;;;7.96;100.00
53270;BME280;39159;45.634;9.420;2023-03-13T03:16:59;99023.84;;;7.97;100.00
53270;BME280;39159;45.634;9.420;2023-03-13T03:19:24;99029.88;;;7.94;100.00
53270;BME280;39159;45.634;9.420;2023-03-13T03:21:50;99035.31;;;7.94;100.00
53270;BME280;39159;45.634;9.420;2023-03-13T03:24:15;99033.69;;;7.93;100.00
53270;BME280;39159;45.634;9.420;2023-03-13T03:26:41;99038.03;;;7.94;100.00
53270;BME280;39159;45.634;9.420;2023-03-13T03:29:06;99038.91;;;7.89;100.00
53270;BME280;39159;45.634;9.420;2023-03-13T03:31:33;99034.34;;;7.85;100.00
53270;BME280;39159;45.634;9.420;2023-03-13T03:33:58;99035.19;;;7.80;100.00
53270;BME280;39159;45.634;9.420;2023-03-13T03:36:24;99038.47;;;7.77;100.00
53270;BME280;39159;45.634;9.420;2023-03-13T03:38:50;99037.13;;;7.75;100.00
53270;BME280;39159;45.634;9.420;2023-03-13T03:41:16;99044.75;;;7.73;100.00
53270;BME280;39159;45.634;9.420;2023-03-13T03:43:43;99036.09;;;7.71;100.00
53270;BME280;39159;45.634;9.420;2023-03-13T03:46:08;99041.00;;;7.68;100.00
53270;BME280;39159;45.634;9.420;2023-03-13T03:48:35;99036.69;;;7.67;100.00
53270;BME280;39159;45.634;9.420;2023-03-13T03:51:01;99038.28;;;7.68;100.00
53270;BME280;39159;45.634;9.420;2023-03-13T03:53:26;99041.31;;;7.67;100.00
53270;BME280;39159;45.634;9.420;2023-03-13T03:55:52;99048.94;;;7.65;100.00
53270;BME280;39159;45.634;9.420;2023-03-13T03:58:17;99060.34;;;7.62;100.00
53270;BME280;39159;45.634;9.420;2023-03-13T04:00:44;99059.59;;;7.56;100.00
53270;BME280;39159;45.634;9.420;2023-03-13T04:03:10;99069.41;;;7.52;100.00
53270;BME280;39159;45.634;9.420;2023-03-13T04:05:36;99068.28;;;7.53;100.00
53270;BME280;39159;45.634;9.420;2023-03-13T04:08:02;99067.22;;;7.54;100.00
53270;BME280;39159;45.634;9.420;2023-03-13T04:10:27;99057.44;;;7.53;100.00
53270;BME280;39159;45.634;9.420;2023-03-13T04:12:53;99057.75;;;7.52;100.00
53270;BME280;39159;45.634;9.420;2023-03-13T04:15:18;99052.59;;;7.50;100.00
53270;BME280;39159;45.634;9.420;2023-03-13T04:17:44;99052.84;;;7.54;100.00
53270;BME280;39159;45.634;9.420;2023-03-13T04:20:10;99057.16;;;7.55;100.00
53270;BME280;39159;45.634;9.420;2023-03-13T04:22:37;99057.97;;;7.55;100.00
53270;BME280;39159;45.634;9.420;2023-03-13T04:25:03;99061.72;;;7.59;100.00
53270;BME280;39159;45.634;9.420;2023-03-13T04:27:29;99059.53;;;7.61;100.00
53270;BME280;39159;45.634;9.420;2023-03-13T04:29:54;99058.44;;;7.62;100.00
53270;BME280;39159;45.634;9.420;2023-03-13T04:32:20;99059.22;;;7.68;100.00
53270;BME280;39159;45.634;9.420;2023-03-13T04:34:45;99054.31;;;7.70;100.00
53270;BME280;39159;45.634;9.420;2023-03-13T04:37:10;99051.59;;;7.70;100.00
53270;BME280;39159;45.634;9.420;2023-03-13T04:39:36;99062.69;;;7.74;100.00
53270;BME280;39159;45.634;9.420;2023-03-13T04:42:01;99065.09;;;7.75;100.00
53270;BME280;39159;45.634;9.420;2023-03-13T04:44:27;99047.19;;;7.74;100.00
53270;BME280;39159;45.634;9.420;2023-03-13T04:46:53;99044.50;;;7.74;100.00
53270;BME280;39159;45.634;9.420;2023-03-13T04:49:18;99039.56;;;7.76;100.00
53270;BME280;39159;45.634;9.420;2023-03-13T04:51:45;99025.69;;;7.78;100.00
53270;BME280;39159;45.634;9.420;2023-03-13T04:54:11;99022.63;;;7.84;100.00
53270;BME280;39159;45.634;9.420;2023-03-13T04:56:36;99016.91;;;7.86;100.00
53270;BME280;39159;45.634;9.420;2023-03-13T04:59:02;99035.94;;;7.86;100.00
53270;BME280;39159;45.634;9.420;2023-03-13T05:01:27;99030.22;;;7.87;100.00
53270;BME280;39159;45.634;9.420;2023-03-13T05:03:53;99026.63;;;7.92;100.00
53270;BME280;39159;45.634;9.420;2023-03-13T05:06:18;99033.66;;;7.98;100.00
53270;BME280;39159;45.634;9.420;2023-03-13T05:08:44;99023.78;;;8.02;100.00
53270;BME280;39159;45.634;9.420;2023-03-13T05:11:09;99033.31;;;8.05;100.00
53270;BME280;39159;45.634;9.420;2023-03-13T05:13:35;99034.63;;;8.07;100.00
53270;BME280;39159;45.634;9.420;2023-03-13T05:16:01;99045.50;;;8.07;100.00
53270;BME280;39159;45.634;9.420;2023-03-13T05:18:26;99053.94;;;8.06;100.00
53270;BME280;39159;45.634;9.420;2023-03-13T05:20:52;99061.22;;;8.10;100.00
53270;BME280;39159;45.634;9.420;2023-03-13T05:23:17;99063.06;;;8.15;100.00
53270;BME280;39159;45.634;9.420;2023-03-13T05:25:43;99066.31;;;8.17;100.00
53270;BME280;39159;45.634;9.420;2023-03-13T05:28:08;99074.47;;;8.17;100.00
53270;BME280;39159;45.634;9.420;2023-03-13T05:30:34;99080.50;;;8.14;100.00
53270;BME280;39159;45.634;9.420;2023-03-13T05:32:59;99074.06;;;8.05;100.00
53270;BME280;39159;45.634;9.420;2023-03-13T05:35:25;99068.38;;;8.01;100.00
53270;BME280;39159;45.634;9.420;2023-03-13T05:37:50;99072.16;;;8.05;100.00
53270;BME280;39159;45.634;9.420;2023-03-13T05:40:16;99072.63;;;8.13;100.00
53270;BME280;39159;45.634;9.420;2023-03-13T05:42:41;99078.50;;;8.20;100.00
53270;BME280;39159;45.634;9.420;2023-03-13T05:45:07;99079.44;;;8.34;100.00
53270;BME280;39159;45.634;9.420;2023-03-13T05:47:34;99073.94;;;8.39;100.00
53270;BME280;39159;45.634;9.420;2023-03-13T05:50:00;99071.81;;;8.36;100.00
53270;BME280;39159;45.634;9.420;2023-03-13T05:52:25;99076.66;;;8.39;100.00
53270;BME280;39159;45.634;9.420;2023-03-13T05:54:51;99079.94;;;8.41;100.00
53270;BME280;39159;45.634;9.420;2023-03-13T05:57:16;99075.34;;;8.37;100.00
53270;BME280;39159;45.634;9.420;2023-03-13T05:59:42;99070.25;;;8.30;100.00
53270;BME280;39159;45.634;9.420;2023-03-13T06:02:07;99062.16;;;8.25;100.00
53270;BME280;39159;45.634;9.420;2023-03-13T06:04:33;99061.56;;;8.28;100.00
53270;BME280;39159;45.634;9.420;2023-03-13T06:06:59;99058.59;;;8.24;100.00
53270;BME280;39159;45.634;9.420;2023-03-13T06:09:25;99049.94;;;8.22;100.00
53270;BME280;39159;45.634;9.420;2023-03-13T06:11:50;99060.28;;;8.20;100.00
53270;BME280;39159;45.634;9.420;2023-03-13T06:14:16;99060.75;;;8.03;100.00
53270;BME280;39159;45.634;9.420;2023-03-13T06:16:41;99063.19;;;8.05;100.00
53270;BME280;39159;45.634;9.420;2023-03-13T06:19:07;99059.72;;;7.99;100.00
53270;BME280;39159;45.634;9.420;2023-03-13T06:21:32;99055.22;;;7.89;100.00
53270;BME280;39159;45.634;9.420;2023-03-13T06:23:58;99060.38;;;7.86;100.00
53270;BME280;39159;45.634;9.420;2023-03-13T06:26:23;99058.91;;;7.99;100.00
53270;BME280;39159;45.634;9.420;2023-03-13T06:28:50;99062.44;;;7.99;100.00
53270;BME280;39159;45.634;9.420;2023-03-13T06:31:15;99056.66;;;8.06;100.00
53270;BME280;39159;45.634;9.420;2023-03-13T06:33:41;99054.22;;;8.04;100.00
53270;BME280;39159;45.634;9.420;2023-03-13T06:36:07;99055.78;;;8.10;100.00
53270;BME280;39159;45.634;9.420;2023-03-13T06:38:32;99052.66;;;8.22;100.00
53270;BME280;39159;45.634;9.420;2023-03-13T06:40:58;99060.28;;;8.20;100.00
53270;BME280;39159;45.634;9.420;2023-03-13T06:43:24;99066.56;;;8.21;100.00
53270;BME280;39159;45.634;9.420;2023-03-13T06:45:50;99052.66;;;8.22;100.00
53270;BME280;39159;45.634;9.420;2023-03-13T06:48:16;99051.38;;;8.39;100.00
53270;BME280;39159;45.634;9.420;2023-03-13T06:50:41;99045.88;;;8.68;100.00
53270;BME280;39159;45.634;9.420;2023-03-13T06:53:14;99054.38;;;8.61;100.00
53270;BME280;39159;45.634;9.420;2023-03-13T06:55:40;99057.91;;;8.62;100.00
53270;BME280;39159;45.634;9.420;2023-03-13T06:58:06;99046.47;;;8.65;100.00
53270;BME280;39159;45.634;9.420;2023-03-13T07:00:31;99039.25;;;8.74;100.00
53270;BME280;39159;45.634;9.420;2023-03-13T07:02:58;99049.97;;;8.84;100.00
53270;BME280;39159;45.634;9.420;2023-03-13T07:05:23;99044.41;;;8.95;100.00
53270;BME280;39159;45.634;9.420;2023-03-13T07:07:49;99043.66;;;9.08;100.00
53270;BME280;39159;45.634;9.420;2023-03-13T07:10:14;99051.88;;;9.22;100.00
53270;BME280;39159;45.634;9.420;2023-03-13T07:12:40;99058.22;;;9.36;99.32
53270;BME280;39159;45.634;9.420;2023-03-13T07:15:06;99049.75;;;9.51;98.76
53270;BME280;39159;45.634;9.420;2023-03-13T07:17:32;99054.66;;;9.68;96.43
53270;BME280;39159;45.634;9.420;2023-03-13T07:19:57;99066.81;;;9.90;94.65
53270;BME280;39159;45.634;9.420;2023-03-13T07:22:23;99078.88;;;10.16;93.57
53270;BME280;39159;45.634;9.420;2023-03-13T07:24:48;99077.38;;;10.38;91.54
53270;BME280;39159;45.634;9.420;2023-03-13T07:27:14;99078.28;;;10.61;90.14
53270;BME280;39159;45.634;9.420;2023-03-13T07:29:41;99078.75;;;10.77;85.67
53270;BME280;39159;45.634;9.420;2023-03-13T07:32:07;99085.41;;;10.98;84.56
53270;BME280;39159;45.634;9.420;2023-03-13T07:34:32;99096.47;;;11.16;80.06
53270;BME280;39159;45.634;9.420;2023-03-13T07:36:58;99086.63;;;11.29;80.05
53270;BME280;39159;45.634;9.420;2023-03-13T07:39:23;99095.19;;;11.36;79.43
53270;BME280;39159;45.634;9.420;2023-03-13T07:41:49;99111.66;;;11.45;78.90
53270;BME280;39159;45.634;9.420;2023-03-13T07:44:14;99118.44;;;11.47;78.37
53270;BME280;39159;45.634;9.420;2023-03-13T07:46:40;99125.16;;;11.64;78.68
53270;BME280;39159;45.634;9.420;2023-03-13T07:49:05;99120.59;;;11.81;78.90
53270;BME280;39159;45.634;9.420;2023-03-13T07:51:31;99124.59;;;11.98;77.70
53270;BME280;39159;45.634;9.420;2023-03-13T07:53:56;99126.81;;;12.18;76.40
53270;BME280;39159;45.634;9.420;2023-03-13T07:56:22;99115.88;;;12.18;77.62
53270;BME280;39159;45.634;9.420;2023-03-13T07:58:48;99118.38;;;12.06;77.12
53270;BME280;39159;45.634;9.420;2023-03-13T08:01:20;99111.03;;;11.70;76.81
53270;BME280;39159;45.634;9.420;2023-03-13T08:03:47;99104.66;;;11.52;75.28
53270;BME280;39159;45.634;9.420;2023-03-13T08:06:20;99103.34;;;11.50;75.57
53270;BME280;39159;45.634;9.420;2023-03-13T08:08:47;99103.94;;;11.47;74.44
53270;BME280;39159;45.634;9.420;2023-03-13T08:11:21;99106.53;;;11.29;74.67
53270;BME280;39159;45.634;9.420;2023-03-13T08:13:49;99110.53;;;11.23;72.40
53270;BME280;39159;45.634;9.420;2023-03-13T08:16:17;99106.78;;;11.19;72.42
53270;BME280;39159;45.634;9.420;2023-03-13T08:18:45;99110.31;;;11.19;72.48
53270;BME280;39159;45.634;9.420;2023-03-13T08:21:19;99107.78;;;11.23;73.54
53270;BME280;39159;45.634;9.420;2023-03-13T08:23:48;99104.72;;;11.25;74.21
53270;BME280;39159;45.634;9.420;2023-03-13T08:26:18;99103.84;;;11.15;74.76
53270;BME280;39159;45.634;9.420;2023-03-13T08:28:46;99105.13;;;11.32;74.52
53270;BME280;39159;45.634;9.420;2023-03-13T08:31:23;99100.03;;;11.61;71.51
53270;BME280;39159;45.634;9.420;2023-03-13T08:33:49;99100.97;;;11.57;71.37
53270;BME280;39159;45.634;9.420;2023-03-13T08:36:20;99092.34;;;11.64;71.20
53270;BME280;39159;45.634;9.420;2023-03-13T08:38:48;99090.97;;;11.52;71.62
53270;BME280;39159;45.634;9.420;2023-03-13T08:41:16;99089.56;;;11.55;71.17
53270;BME280;39159;45.634;9.420;2023-03-13T08:43:42;99084.53;;;11.48;71.54
53270;BME280;39159;45.634;9.420;2023-03-13T08:46:08;99082.09;;;11.47;71.67
53270;BME280;39159;45.634;9.420;2023-03-13T08:48:33;99072.84;;;11.34;72.14
53270;BME280;39159;45.634;9.420;2023-03-13T08:51:08;99082.56;;;11.26;73.16
53270;BME280;39159;45.634;9.420;2023-03-13T08:53:35;99090.41;;;11.19;74.83
53270;BME280;39159;45.634;9.420;2023-03-13T08:56:02;99090.31;;;11.10;73.35
53270;BME280;39159;45.634;9.420;2023-03-13T08:58:28;99085.38;;;11.12;74.13
53270;BME280;39159;45.634;9.420;2023-03-13T09:00:54;99083.22;;;11.09;73.26
53270;BME280;39159;45.634;9.420;2023-03-13T09:03:19;99090.03;;;11.12;73.63
53270;BME280;39159;45.634;9.420;2023-03-13T09:05:45;99100.94;;;11.12;74.11
53270;BME280;39159;45.634;9.420;2023-03-13T09:08:13;99112.38;;;11.14;74.17
53270;BME280;39159;45.634;9.420;2023-03-13T09:10:39;99113.47;;;11.13;72.73
53270;BME280;39159;45.634;9.420;2023-03-13T09:13:05;99118.72;;;11.09;73.05
53270;BME280;39159;45.634;9.420;2023-03-13T09:15:30;99109.81;;;11.17;73.32
53270;BME280;39159;45.634;9.420;2023-03-13T09:17:55;99113.06;;;11.19;71.87
53270;BME280;39159;45.634;9.420;2023-03-13T09:20:21;99111.03;;;11.25;72.05
53270;BME280;39159;45.634;9.420;2023-03-13T09:22:46;99102.03;;;11.11;72.63
53270;BME280;39159;45.634;9.420;2023-03-13T09:25:12;99107.78;;;11.23;72.67
53270;BME280;39159;45.634;9.420;2023-03-13T09:27:38;99110.09;;;11.30;71.87
53270;BME280;39159;45.634;9.420;2023-03-13T09:30:04;99112.78;;;11.44;71.99
53270;BME280;39159;45.634;9.420;2023-03-13T09:32:30;99108.69;;;11.55;70.90
53270;BME280;39159;45.634;9.420;2023-03-13T09:34:56;99124.00;;;11.65;70.39
53270;BME280;39159;45.634;9.420;2023-03-13T09:37:21;99117.69;;;11.78;70.16
53270;BME280;39159;45.634;9.420;2023-03-13T09:39:47;99117.66;;;11.92;69.65
53270;BME280;39159;45.634;9.420;2023-03-13T09:42:19;99112.75;;;12.11;69.49
53270;BME280;39159;45.634;9.420;2023-03-13T09:44:53;99098.81;;;12.21;69.31
53270;BME280;39159;45.634;9.420;2023-03-13T09:47:29;99091.75;;;12.29;68.91
53270;BME280;39159;45.634;9.420;2023-03-13T09:52:47;99097.56;;;12.28;67.08
53270;BME280;39159;45.634;9.420;2023-03-13T09:55:18;99087.56;;;12.23;66.94
53270;BME280;39159;45.634;9.420;2023-03-13T09:58:10;99095.75;;;12.63;65.09
53270;BME280;39159;45.634;9.420;2023-03-13T10:00:39;99097.41;;;12.81;63.45
53270;BME280;39159;45.634;9.420;2023-03-13T10:04:01;99091.81;;;13.13;60.61
53270;BME280;39159;45.634;9.420;2023-03-13T10:06:19;99086.66;;;13.20;62.29
53270;BME280;39159;45.634;9.420;2023-03-13T10:08:44;99083.91;;;13.72;60.03
53270;BME280;39159;45.634;9.420;2023-03-13T10:11:38;99076.31;;;13.69;58.34
53270;BME280;39159;45.634;9.420;2023-03-13T10:14:13;99081.13;;;13.89;57.79
53270;BME280;39159;45.634;9.420;2023-03-13T10:17:09;99074.50;;;13.91;56.71
53270;BME280;39159;45.634;9.420;2023-03-13T10:19:40;99079.34;;;13.85;56.64
53270;BME280;39159;45.634;9.420;2023-03-13T10:22:18;99065.03;;;13.71;55.81
53270;BME280;39159;45.634;9.420;2023-03-13T10:24:56;99068.81;;;13.96;56.86
53270;BME280;39159;45.634;9.420;2023-03-13T10:27:22;99070.75;;;14.42;55.21
53270;BME280;39159;45.634;9.420;2023-03-13T10:29:48;99075.66;;;14.66;53.97
53270;BME280;39159;45.634;9.420;2023-03-13T10:32:15;99072.06;;;14.75;54.27
53270;BME280;39159;45.634;9.420;2023-03-13T10:34:57;99061.69;;;14.80;53.39
53270;BME280;39159;45.634;9.420;2023-03-13T10:37:29;99059.13;;;14.96;52.03
53270;BME280;39159;45.634;9.420;2023-03-13T10:40:24;99064.38;;;14.89;53.33
53270;BME280;39159;45.634;9.420;2023-03-13T10:42:52;99057.13;;;15.26;51.56
53270;BME280;39159;45.634;9.420;2023-03-13T10:45:20;99057.94;;;15.27;51.02
53270;BME280;39159;45.634;9.420;2023-03-13T10:47:53;99051.38;;;14.98;52.24
53270;BME280;39159;45.634;9.420;2023-03-13T10:50:25;99052.53;;;15.51;51.36
53270;BME280;39159;45.634;9.420;2023-03-13T10:52:51;99036.41;;;15.83;50.57
53270;BME280;39159;45.634;9.420;2023-03-13T10:55:23;99020.38;;;16.10;50.20
53270;BME280;39159;45.634;9.420;2023-03-13T10:57:56;99008.69;;;16.50;50.38
53270;BME280;39159;45.634;9.420;2023-03-13T11:00:34;99016.91;;;16.87;48.78
53270;BME280;39159;45.634;9.420;2023-03-13T11:03:04;99027.91;;;16.99;46.82
53270;BME280;39159;45.634;9.420;2023-03-13T11:05:39;99043.19;;;16.47;48.21
53270;BME280;39159;45.634;9.420;2023-03-13T11:11:01;99018.16;;;15.91;50.40
53270;BME280;39159;45.634;9.420;2023-03-13T11:13:40;99021.41;;;15.60;51.51
53270;BME280;39159;45.634;9.420;2023-03-13T11:16:17;99025.72;;;15.48;52.02
53270;BME280;39159;45.634;9.420;2023-03-13T11:21:52;99026.13;;;15.38;52.87
53270;BME280;39159;45.634;9.420;2023-03-13T11:32:47;99012.03;;;15.61;53.00
53270;BME280;39159;45.634;9.420;2023-03-13T11:35:39;99000.09;;;15.69;52.02
53270;BME280;39159;45.634;9.420;2023-03-13T11:38:18;99003.81;;;15.40;53.31
53270;BME280;39159;45.634;9.420;2023-03-13T11:41:22;98998.94;;;15.58;52.54
53270;BME280;39159;45.634;9.420;2023-03-13T11:55:09;98979.16;;;16.38;50.84
53270;BME280;39159;45.634;9.420;2023-03-13T11:57:47;98977.94;;;16.23;51.01
53270;BME280;39159;45.634;9.420;2023-03-13T12:03:22;98956.97;;;16.84;51.20
53270;BME280;39159;45.634;9.420;2023-03-13T12:05:50;98948.94;;;17.35;49.09
53270;BME280;39159;45.634;9.420;2023-03-13T12:08:25;98946.34;;;16.98;48.84
53270;BME280;39159;45.634;9.420;2023-03-13T12:11:16;98946.78;;;16.47;51.55
53270;BME280;39159;45.634;9.420;2023-03-13T12:13:54;98944.75;;;16.44;51.29
53270;BME280;39159;45.634;9.420;2023-03-13T12:16:47;98938.19;;;16.49;51.02
53270;BME280;39159;45.634;9.420;2023-03-13T12:19:22;98935.75;;;16.60;52.00
53270;BME280;39159;45.634;9.420;2023-03-13T12:21:52;98930.38;;;16.63;51.00
53270;BME280;39159;45.634;9.420;2023-03-13T12:24:24;98931.94;;;16.64;50.68
53270;BME280;39159;45.634;9.420;2023-03-13T12:31:56;98930.66;;;16.21;51.66
53270;BME280;39159;45.634;9.420;2023-03-13T12:34:42;98930.09;;;16.15;51.66
53270;BME280;39159;45.634;9.420;2023-03-13T12:37:30;98907.06;;;15.83;52.86
53270;BME280;39159;45.634;9.420;2023-03-13T12:40:22;98904.06;;;16.13;53.34
53270;BME280;39159;45.634;9.420;2023-03-13T12:59:10;98873.66;;;16.22;52.46
53270;BME280;39159;45.634;9.420;2023-03-13T13:01:41;98879.47;;;16.32;51.25
53270;BME280;39159;45.634;9.420;2023-03-13T13:04:20;98867.59;;;16.04;52.70
53270;BME280;39159;45.634;9.420;2023-03-13T13:09:31;98869.50;;;16.28;53.35
53270;BME280;39159;45.634;9.420;2023-03-13T13:14:54;98856.66;;;16.60;50.90
53270;BME280;39159;45.634;9.420;2023-03-13T13:20:28;98837.63;;;16.55;51.71
53270;BME280;39159;45.634;9.420;2023-03-13T13:23:21;98840.50;;;16.87;50.68
53270;BME280;39159;45.634;9.420;2023-03-13T13:25:48;98837.13;;;17.09;49.48
53270;BME280;39159;45.634;9.420;2023-03-13T13:30:47;98841.28;;;16.59;51.08
53270;BME280;39159;45.634;9.420;2023-03-13T13:38:38;98827.88;;;16.86;52.68
53270;BME280;39159;45.634;9.420;2023-03-13T13:46:25;98803.81;;;16.98;51.49
53270;BME280;39159;45.634;9.420;2023-03-13T13:51:42;98793.75;;;17.06;50.76
53270;BME280;39159;45.634;9.420;2023-03-13T13:54:31;98794.47;;;17.03;50.99
53270;BME280;39159;45.634;9.420;2023-03-13T13:56:58;98783.50;;;16.91;52.34
53270;BME280;39159;45.634;9.420;2023-03-13T13:59:30;98784.69;;;16.90;52.60
53270;BME280;39159;45.634;9.420;2023-03-13T14:04:40;98787.22;;;16.39;53.05
53270;BME280;39159;45.634;9.420;2023-03-13T14:07:23;98783.53;;;16.34;54.00
53270;BME280;39159;45.634;9.420;2023-03-13T14:12:35;98777.47;;;16.29;54.03
53270;BME280;39159;45.634;9.420;2023-03-13T14:17:42;98760.13;;;16.00;55.16
53270;BME280;39159;45.634;9.420;2023-03-13T14:22:57;98757.94;;;16.06;55.46
53270;BME280;39159;45.634;9.420;2023-03-13T14:25:25;98762.78;;;15.97;55.56
53270;BME280;39159;45.634;9.420;2023-03-13T14:27:52;98765.31;;;15.89;55.97
53270;BME280;39159;45.634;9.420;2023-03-13T14:30:20;98758.22;;;15.88;56.55
53270;BME280;39159;45.634;9.420;2023-03-13T14:32:46;98751.47;;;15.86;56.76
53270;BME280;39159;45.634;9.420;2023-03-13T14:35:17;98748.94;;;15.81;56.24
53270;BME280;39159;45.634;9.420;2023-03-13T14:37:51;98739.66;;;15.85;55.78
53270;BME280;39159;45.634;9.420;2023-03-13T14:40:27;98756.31;;;15.77;55.76